Time;durP1;ratioP1;P1;durP2;ratioP2;P2;SDS_P1;SDS_P2;PMS_P1;PMS_P2;Temp;Humidity;BMP_temperature;BMP_pressure;BME280_temperature;BME280_humidity;BME280_pressure;Samples;Min_cycle;Max_cycle;Signal;HPM_P1;HPM_P2
2021/01/06 00:01:49;;;;;;;14.10;6.88;;;;;;;0.97;88.55;98256.75;5082976;28;20052;-75
2021/01/06 00:04:15;;;;;;;13.40;6.55;;;;;;;1.03;88.39;98266.81;5080013;28;20016;-73
2021/01/06 00:06:40;;;;;;;13.98;6.88;;;;;;;0.91;88.32;98257.41;5075493;28;20062;-74
2021/01/06 00:09:06;;;;;;;16.45;7.80;;;;;;;0.93;88.65;98268.72;5076014;28;20032;-75
2021/01/06 00:11:37;;;;;;;17.10;7.75;;;;;;;0.97;88.13;98267.41;5074938;28;20027;-74
2021/01/06 00:14:07;;;;;;;14.02;7.28;;;;;;;0.83;88.18;98247.50;5075552;28;20545;-74
2021/01/06 00:16:32;;;;;;;14.32;7.30;;;;;;;0.90;88.54;98269.88;5074023;28;20039;-74
2021/01/06 00:18:58;;;;;;;14.27;6.85;;;;;;;0.80;88.25;98253.16;5073768;28;20029;-74
2021/01/06 00:21:24;;;;;;;14.10;7.13;;;;;;;0.88;88.43;98258.53;5073227;28;20020;-74
2021/01/06 00:23:49;;;;;;;12.52;6.60;;;;;;;0.79;88.24;98252.31;5073649;28;20428;-74
2021/01/06 00:26:15;;;;;;;11.27;6.30;;;;;;;0.91;88.04;98274.19;5074079;28;20544;-74
2021/01/06 00:28:40;;;;;;;12.52;6.10;;;;;;;0.84;88.19;98263.34;5078120;28;20016;-74
2021/01/06 00:31:06;;;;;;;17.90;6.32;;;;;;;0.94;88.11;98276.56;5081084;28;20077;-73
2021/01/06 00:33:36;;;;;;;12.05;6.38;;;;;;;0.77;88.14;98259.63;5078391;28;20024;-74
2021/01/06 00:36:16;;;;;;;13.20;7.10;;;;;;;0.75;88.28;98252.78;5075003;28;20020;-73
2021/01/06 00:38:41;;;;;;;14.35;6.13;;;;;;;0.90;88.59;98275.19;5075099;28;20025;-74
2021/01/06 00:41:07;;;;;;;14.98;7.43;;;;;;;0.81;87.84;98255.69;5079143;28;20024;-74
2021/01/06 00:43:32;;;;;;;14.23;6.97;;;;;;;0.87;88.17;98284.34;5092961;28;20020;-74
2021/01/06 00:45:58;;;;;;;12.90;6.50;;;;;;;0.73;88.40;98260.09;5074616;28;20046;-73
2021/01/06 00:48:23;;;;;;;16.67;7.15;;;;;;;0.79;88.42;98286.09;5074614;28;20026;-75
2021/01/06 00:50:49;;;;;;;14.38;7.28;;;;;;;0.73;88.39;98263.56;5071922;28;20098;-75
2021/01/06 00:53:23;;;;;;;13.52;7.03;;;;;;;0.73;88.18;98263.56;5069910;28;20108;-74
2021/01/06 00:55:49;;;;;;;15.73;7.10;;;;;;;0.84;88.10;98271.34;5074479;28;20444;-75
2021/01/06 00:58:15;;;;;;;15.57;7.10;;;;;;;0.85;87.79;98272.16;5074111;28;20027;-75
2021/01/06 01:00:40;;;;;;;13.57;7.05;;;;;;;0.83;88.26;98269.66;5068346;28;20029;-74
2021/01/06 01:03:06;;;;;;;12.77;7.32;;;;;;;0.75;88.18;98266.09;5072741;28;20074;-74
2021/01/06 01:05:33;;;;;;;19.58;7.88;;;;;;;0.81;88.46;98255.69;5073921;28;20016;-74
2021/01/06 01:07:59;;;;;;;13.50;6.53;;;;;;;0.69;88.16;98256.06;5073211;28;20051;-74
2021/01/06 01:10:36;;;;;;;14.23;7.10;;;;;;;0.81;88.50;98270.78;5070813;28;20398;-77
2021/01/06 01:13:25;;;;;;;14.43;7.35;;;;;;;0.84;88.47;98273.16;5070611;28;20544;-74
2021/01/06 01:15:54;;;;;;;13.10;6.55;;;;;;;0.84;88.46;98283.81;5077891;28;20069;-74
2021/01/06 01:18:23;;;;;;;14.18;7.05;;;;;;;0.81;88.26;98276.97;5080337;28;20092;-74
2021/01/06 01:20:51;;;;;;;13.60;6.47;;;;;;;0.80;88.12;98285.09;5078423;28;20110;-74
2021/01/06 01:23:19;;;;;;;13.43;6.78;;;;;;;0.75;88.24;98287.41;5073381;28;20076;-74
2021/01/06 01:25:44;;;;;;;12.38;6.50;;;;;;;0.62;88.47;98269.97;5058863;28;20074;-74
2021/01/06 01:28:12;;;;;;;14.45;7.05;;;;;;;0.68;89.01;98278.34;5054462;28;20410;-74
2021/01/06 01:30:37;;;;;;;12.07;6.60;;;;;;;0.65;89.01;98268.84;5065275;28;20028;-74
2021/01/06 01:33:03;;;;;;;15.90;6.55;;;;;;;0.67;88.99;98274.84;5073096;28;20035;-73
2021/01/06 01:35:31;;;;;;;13.25;6.63;;;;;;;0.67;88.90;98287.34;5064652;28;20104;-74
2021/01/06 01:38:02;;;;;;;13.43;6.90;;;;;;;0.67;89.25;98282.00;5073555;28;20027;-74
2021/01/06 01:40:31;;;;;;;15.25;6.65;;;;;;;0.54;89.04;98269.09;5074018;28;20055;-74
2021/01/06 01:43:04;;;;;;;15.35;7.65;;;;;;;0.63;89.47;98284.16;5074052;28;20056;-75
2021/01/06 01:45:45;;;;;;;15.02;6.60;;;;;;;0.61;88.89;98286.94;5071816;28;20146;-75
2021/01/06 01:48:49;;;;;;;16.73;7.50;;;;;;;0.58;89.42;98283.78;5073879;28;20028;-75
2021/01/06 01:51:38;;;;;;;14.20;6.78;;;;;;;0.60;89.41;98289.75;5062630;28;20099;-74
2021/01/06 01:54:05;;;;;;;15.27;7.43;;;;;;;0.57;89.18;98282.06;5073813;28;20100;-75
2021/01/06 01:56:40;;;;;;;15.80;6.78;;;;;;;0.53;89.57;98289.53;5073320;28;20024;-74
2021/01/06 01:59:12;;;;;;;15.60;6.72;;;;;;;0.40;89.78;98262.47;5072677;28;20029;-74
2021/01/06 02:01:38;;;;;;;12.25;6.43;;;;;;;0.50;89.60;98289.00;5073238;28;20017;-74
2021/01/06 02:04:15;;;;;;;15.63;7.03;;;;;;;0.29;89.98;98255.56;5070968;28;20103;-74
2021/01/06 02:07:06;;;;;;;12.45;6.53;;;;;;;0.47;89.83;98290.13;5072745;28;20181;-74
2021/01/06 02:09:39;;;;;;;13.15;6.43;;;;;;;0.41;90.05;98280.09;5071731;28;20037;-73
2021/01/06 02:12:13;;;;;;;12.48;6.50;;;;;;;0.46;90.09;98292.97;5072171;28;20426;-75
2021/01/06 02:14:54;;;;;;;12.85;6.13;;;;;;;0.09;89.64;98233.56;5073465;28;20012;-74
2021/01/06 02:17:20;;;;;;;12.73;6.25;;;;;;;0.46;89.92;98280.47;5073923;28;20024;-73
2021/01/06 02:19:46;;;;;;;12.27;6.88;;;;;;;0.38;90.12;98269.78;5074333;28;20021;-74
2021/01/06 02:22:18;;;;;;;13.07;6.68;;;;;;;0.43;89.98;98276.31;5072526;28;20028;-73
2021/01/06 02:24:45;;;;;;;13.38;6.35;;;;;;;0.44;89.74;98266.50;5072625;28;20028;-74
2021/01/06 02:27:10;;;;;;;13.82;7.30;;;;;;;0.28;89.51;98255.69;5073364;28;20531;-74
2021/01/06 02:29:37;;;;;;;12.30;6.60;;;;;;;0.36;89.84;98267.25;5073232;28;20029;-74
2021/01/06 02:32:05;;;;;;;12.30;6.05;;;;;;;0.44;89.78;98274.47;5073176;28;20029;-74
2021/01/06 02:34:30;;;;;;;12.27;6.22;;;;;;;0.42;90.03;98271.97;5072885;28;20028;-74
2021/01/06 02:36:58;;;;;;;13.48;6.90;;;;;;;0.36;90.37;98277.06;5072404;28;20047;-74
2021/01/06 02:39:24;;;;;;;14.88;7.07;;;;;;;0.22;90.15;98241.19;5072743;28;20052;-77
2021/01/06 02:41:50;;;;;;;15.73;6.55;;;;;;;0.26;90.45;98255.00;5073081;28;20028;-74
2021/01/06 02:44:17;;;;;;;15.18;6.97;;;;;;;0.33;90.47;98267.56;5072453;28;20077;-75
2021/01/06 02:46:43;;;;;;;13.57;6.72;;;;;;;0.33;90.21;98251.59;5055144;28;20025;-74
2021/01/06 02:49:09;;;;;;;12.80;6.63;;;;;;;0.27;90.33;98246.06;5056722;28;20020;-74
2021/01/06 02:51:50;;;;;;;14.43;7.45;;;;;;;0.45;90.49;98268.19;5061962;28;20031;-74
2021/01/06 02:54:25;;;;;;;14.60;6.68;;;;;;;0.39;90.40;98260.78;5057417;28;20024;-74
2021/01/06 02:56:55;;;;;;;13.80;6.70;;;;;;;0.40;90.56;98268.63;5072457;28;20505;-74
2021/01/06 02:59:24;;;;;;;16.15;6.60;;;;;;;0.36;90.64;98264.59;5073006;28;20020;-74
2021/01/06 03:01:53;;;;;;;13.43;6.80;;;;;;;0.43;90.56;98265.66;5072795;28;20397;-74
2021/01/06 03:04:19;;;;;;;15.38;6.82;;;;;;;0.40;90.15;98257.97;5056371;28;20021;-74
2021/01/06 03:07:03;;;;;;;16.25;6.85;;;;;;;0.25;90.70;98240.06;5070273;28;20501;-74
2021/01/06 03:09:30;;;;;;;14.35;6.80;;;;;;;0.47;90.34;98255.53;5065442;28;20043;-74
2021/01/06 03:11:58;;;;;;;16.90;7.07;;;;;;;0.34;90.57;98232.00;5072327;28;20043;-74
2021/01/06 03:14:26;;;;;;;15.57;6.43;;;;;;;0.43;89.98;98246.19;5072243;28;20364;-73
2021/01/06 03:16:51;;;;;;;12.38;6.65;;;;;;;0.41;90.03;98256.97;5071564;28;20056;-74
2021/01/06 03:19:20;;;;;;;17.73;7.35;;;;;;;0.40;89.72;98244.69;5072271;28;20039;-74
2021/01/06 03:21:48;;;;;;;11.68;5.82;;;;;;;0.30;89.63;98232.44;5071498;28;20024;-74
2021/01/06 03:24:17;;;;;;;13.35;6.28;;;;;;;0.42;89.79;98245.38;5064624;28;20087;-73
2021/01/06 03:26:44;;;;;;;15.00;6.67;;;;;;;0.41;90.06;98245.50;5062575;28;20043;-74
2021/01/06 03:29:10;;;;;;;13.40;6.25;;;;;;;0.31;90.25;98226.13;5072322;28;20274;-74
2021/01/06 03:31:43;;;;;;;13.85;6.93;;;;;;;0.49;89.85;98253.56;5072512;28;20024;-74
2021/01/06 03:34:24;;;;;;;11.73;5.72;;;;;;;0.37;89.51;98228.19;5063432;28;20025;-74
2021/01/06 03:36:57;;;;;;;12.95;6.15;;;;;;;0.38;89.17;98228.03;5070478;28;20036;-74
2021/01/06 03:39:30;;;;;;;14.95;6.70;;;;;;;0.48;89.11;98251.91;5072334;28;20112;-76
2021/01/06 03:41:56;;;;;;;10.75;5.47;;;;;;;0.30;89.45;98224.47;5072034;28;20028;-74
2021/01/06 03:44:23;;;;;;;14.18;6.40;;;;;;;0.38;89.70;98240.50;5070586;28;20178;-74
2021/01/06 03:47:13;;;;;;;10.35;6.05;;;;;;;0.28;89.73;98219.28;5072017;28;20035;-75
2021/01/06 03:49:53;;;;;;;13.13;6.03;;;;;;;0.46;89.80;98243.22;5072236;28;20032;-74
2021/01/06 03:52:31;;;;;;;11.20;5.53;;;;;;;0.42;88.99;98236.56;5071721;28;20403;-75
2021/01/06 03:55:03;;;;;;;11.95;5.80;;;;;;;0.30;89.44;98206.66;5071498;28;20020;-74
2021/01/06 03:57:30;;;;;;;12.10;5.70;;;;;;;0.49;89.19;98248.25;5071802;28;20062;-74
2021/01/06 03:59:57;;;;;;;11.00;5.93;;;;;;;0.37;89.73;98230.84;5072063;28;20028;-74
2021/01/06 04:02:31;;;;;;;11.43;5.43;;;;;;;0.51;89.27;98243.59;5071813;28;20099;-74
2021/01/06 04:05:08;;;;;;;9.60;5.25;;;;;;;0.52;88.76;98245.25;5071344;28;20016;-74
2021/01/06 04:07:42;;;;;;;11.52;5.72;;;;;;;0.53;88.83;98241.63;5070666;28;20520;-75
2021/01/06 04:10:11;;;;;;;11.65;5.72;;;;;;;0.46;88.79;98239.75;5071977;28;20024;-75
2021/01/06 04:12:37;;;;;;;9.23;5.53;;;;;;;0.43;88.93;98235.56;5071621;28;20114;-74
2021/01/06 04:15:05;;;;;;;10.20;5.32;;;;;;;0.52;89.05;98231.97;5071260;28;20060;-74
2021/01/06 04:17:34;;;;;;;10.00;4.85;;;;;;;0.37;89.08;98214.88;5072062;28;20034;-76
2021/01/06 04:20:15;;;;;;;11.45;5.60;;;;;;;0.51;89.02;98234.78;5063983;28;20094;-76
2021/01/06 04:22:48;;;;;;;8.65;5.10;;;;;;;0.38;88.90;98228.03;5071598;28;20036;-76
2021/01/06 04:25:23;;;;;;;9.18;5.03;;;;;;;0.47;89.11;98233.41;5066780;28;20066;-76
2021/01/06 04:27:50;;;;;;;11.82;5.25;;;;;;;0.40;89.33;98236.69;5070818;28;20453;-76
2021/01/06 04:30:45;;;;;;;10.68;5.35;;;;;;;0.40;89.17;98234.03;5070104;28;20025;-76
2021/01/06 04:33:16;;;;;;;10.27;5.05;;;;;;;0.35;89.22;98235.50;5069188;28;20390;-76
2021/01/06 04:35:41;;;;;;;11.73;5.38;;;;;;;0.37;89.12;98234.34;5073781;28;20123;-76
2021/01/06 04:38:07;;;;;;;8.55;4.68;;;;;;;0.34;89.23;98223.16;5074130;28;20569;-76
2021/01/06 04:40:43;;;;;;;10.57;4.80;;;;;;;0.31;89.47;98216.31;5063028;28;20025;-77
2021/01/06 04:43:36;;;;;;;11.15;5.32;;;;;;;0.39;89.61;98227.06;5074722;28;20047;-76
2021/01/06 04:46:23;;;;;;;9.38;4.95;;;;;;;0.39;89.20;98227.06;5058862;28;20040;-76
2021/01/06 04:49:11;;;;;;;9.85;5.07;;;;;;;0.41;89.61;98235.69;5073226;28;20035;-77
2021/01/06 04:51:36;;;;;;;7.97;4.93;;;;;;;0.46;89.28;98234.41;5073468;28;20062;-76
2021/01/06 04:54:29;;;;;;;8.05;4.40;;;;;;;0.44;89.13;98229.22;5073295;28;20051;-78
2021/01/06 04:57:04;;;;;;;8.07;4.18;;;;;;;0.41;88.92;98224.22;5071876;28;20112;-76
2021/01/06 04:59:53;;;;;;;10.70;5.30;;;;;;;0.43;89.10;98230.22;5081353;28;20024;-75
2021/01/06 05:03:08;;;;;;;8.52;4.68;;;;;;;0.44;88.85;98238.03;5099056;28;20020;-76
2021/01/06 05:05:53;;;;;;;8.85;4.68;;;;;;;0.46;89.11;98226.44;5083470;28;20102;-78
2021/01/06 05:08:41;;;;;;;9.10;4.85;;;;;;;0.48;89.14;98238.59;5096119;28;20024;-77
2021/01/06 05:11:33;;;;;;;8.88;4.75;;;;;;;0.43;88.83;98230.22;5105860;28;20013;-74
2021/01/06 05:14:04;;;;;;;9.70;5.30;;;;;;;0.32;88.53;98222.50;5094625;28;20028;-75
2021/01/06 05:16:42;;;;;;;8.40;4.47;;;;;;;0.37;88.94;98226.38;5080569;28;20041;-76
2021/01/06 05:19:23;;;;;;;12.05;5.18;;;;;;;0.48;88.92;98243.91;5074293;28;20398;-76
2021/01/06 05:21:50;;;;;;;9.00;4.72;;;;;;;0.42;88.72;98217.94;5074835;28;20062;-76
2021/01/06 05:24:30;;;;;;;8.32;4.45;;;;;;;0.54;88.72;98239.81;5072519;28;20052;-73
2021/01/06 05:27:18;;;;;;;8.25;4.43;;;;;;;0.51;88.63;98235.63;5066142;28;20028;-73
2021/01/06 05:29:45;;;;;;;7.03;4.03;;;;;;;0.52;88.66;98228.47;5073159;28;20043;-73
2021/01/06 05:32:36;;;;;;;6.88;4.07;;;;;;;0.50;88.33;98239.28;5073246;28;20454;-64
2021/01/06 05:35:13;;;;;;;9.07;4.13;;;;;;;0.43;88.18;98230.22;5057560;28;20621;-75
2021/01/06 05:37:38;;;;;;;6.55;4.05;;;;;;;0.51;87.92;98253.41;5070441;28;20032;-75
2021/01/06 05:40:07;;;;;;;7.72;4.20;;;;;;;0.51;88.36;98240.94;5075422;28;20054;-73
2021/01/06 05:42:50;;;;;;;9.60;4.57;;;;;;;0.53;88.07;98246.97;5081640;28;20032;-72
2021/01/06 05:45:19;;;;;;;7.93;4.15;;;;;;;0.40;88.47;98206.59;5083475;28;20088;-72
2021/01/06 05:48:16;;;;;;;7.75;4.45;;;;;;;0.57;87.82;98242.97;5089842;28;20024;-73
2021/01/06 05:50:50;;;;;;;6.65;4.00;;;;;;;0.55;87.70;98255.63;5083954;28;20051;-73
2021/01/06 05:53:32;;;;;;;7.65;4.10;;;;;;;0.49;88.12;98250.06;5089174;28;20028;-72
2021/01/06 05:56:02;;;;;;;6.68;3.97;;;;;;;0.44;88.25;98253.19;5084331;28;20031;-73
2021/01/06 05:58:32;;;;;;;7.13;4.00;;;;;;;0.43;88.57;98251.53;5073948;28;20034;-73
2021/01/06 06:01:24;;;;;;;6.63;4.03;;;;;;;0.41;88.59;98259.66;5073087;28;20046;-69
2021/01/06 06:04:04;;;;;;;7.85;4.60;;;;;;;0.35;88.59;98249.63;5070712;28;20105;-73
2021/01/06 06:07:05;;;;;;;6.45;4.05;;;;;;;0.47;88.97;98247.56;5077319;28;20107;-74
2021/01/06 06:09:30;;;;;;;7.38;3.70;;;;;;;0.48;88.57;98254.56;5064220;28;20039;-74
2021/01/06 06:12:10;;;;;;;6.13;4.00;;;;;;;0.39;88.65;98239.50;5071568;28;20406;-74
2021/01/06 06:14:50;;;;;;;7.88;4.32;;;;;;;0.44;88.81;98250.53;5073244;28;20024;-74
2021/01/06 06:17:43;;;;;;;6.93;3.78;;;;;;;0.42;89.04;98255.19;5071637;28;20036;-70
2021/01/06 06:20:27;;;;;;;7.35;4.32;;;;;;;0.42;88.66;98255.19;5064154;28;20036;-75
2021/01/06 06:23:10;;;;;;;8.07;4.35;;;;;;;0.42;88.80;98249.88;5067274;28;20025;-72
2021/01/06 06:25:48;;;;;;;7.55;4.55;;;;;;;0.45;88.97;98249.56;5069964;28;20020;-71
2021/01/06 06:28:25;;;;;;;7.40;3.75;;;;;;;0.44;88.88;98247.88;5071078;28;20028;-70
2021/01/06 06:31:01;;;;;;;6.57;3.95;;;;;;;0.44;88.90;98253.19;5070803;28;20020;-72
2021/01/06 06:33:33;;;;;;;6.35;3.85;;;;;;;0.36;89.05;98245.13;5068747;28;20024;-74
2021/01/06 06:36:01;;;;;;;5.38;3.45;;;;;;;0.50;88.48;98252.59;5085348;28;20024;-73
2021/01/06 06:38:37;;;;;;;6.82;4.15;;;;;;;0.46;88.64;98269.00;5072182;28;20066;-73
2021/01/06 06:41:24;;;;;;;6.32;3.80;;;;;;;0.41;89.08;98248.16;5070437;28;20040;-74
2021/01/06 06:44:08;;;;;;;7.55;3.90;;;;;;;0.40;88.77;98246.50;5063957;28;20074;-74
2021/01/06 06:46:53;;;;;;;5.82;3.63;;;;;;;0.46;88.86;98275.16;5069668;28;20482;-72
2021/01/06 06:49:27;;;;;;;5.13;3.30;;;;;;;0.47;88.72;98276.81;5071398;28;20037;-74
2021/01/06 06:52:04;;;;;;;8.30;4.20;;;;;;;0.43;88.98;98281.63;5060588;28;20430;-74
2021/01/06 06:55:14;;;;;;;6.85;3.85;;;;;;;0.48;88.54;98281.19;5063569;28;20464;-74
2021/01/06 06:58:21;;;;;;;5.55;3.35;;;;;;;0.42;88.79;98276.47;5071450;28;20021;-74
2021/01/06 07:00:48;;;;;;;6.93;3.60;;;;;;;0.41;89.11;98280.94;5050988;28;20128;-74
2021/01/06 07:03:14;;;;;;;8.63;4.55;;;;;;;0.35;88.69;98262.94;5060646;28;20029;-74
2021/01/06 07:05:55;;;;;;;5.78;3.22;;;;;;;0.47;88.64;98278.66;5063098;28;20038;-74
2021/01/06 07:08:35;;;;;;;7.35;3.70;;;;;;;0.41;88.26;98274.78;5067558;28;20024;-74
2021/01/06 07:11:21;;;;;;;6.72;3.72;;;;;;;0.41;88.62;98262.31;5062938;28;20051;-74
2021/01/06 07:13:54;;;;;;;7.53;3.72;;;;;;;0.44;88.41;98277.13;5061723;28;20608;-74
2021/01/06 07:16:29;;;;;;;7.68;4.28;;;;;;;0.31;89.01;98274.00;5065694;28;20135;-74
2021/01/06 07:19:11;;;;;;;10.10;4.03;;;;;;;0.37;89.08;98281.41;5063666;28;20693;-75
2021/01/06 07:21:36;;;;;;;8.93;3.92;;;;;;;0.30;88.72;98275.84;5064432;28;20039;-74
2021/01/06 07:24:17;;;;;;;9.32;3.75;;;;;;;0.26;89.19;98268.31;5058103;28;20029;-74
2021/01/06 07:26:51;;;;;;;5.93;3.35;;;;;;;0.37;88.80;98290.22;5062829;28;20486;-74
2021/01/06 07:29:19;;;;;;;6.50;3.85;;;;;;;0.36;89.57;98287.72;5067052;28;20494;-73
2021/01/06 07:32:34;;;;;;;6.65;3.55;;;;;;;0.37;89.63;98292.06;5065953;28;20036;-73
2021/01/06 07:35:07;;;;;;;9.27;4.65;;;;;;;0.27;89.36;98285.97;5028026;28;20029;-73
2021/01/06 07:37:54;;;;;;;8.70;5.05;;;;;;;0.38;89.81;98296.38;5044162;28;20081;-71
2021/01/06 07:40:23;;;;;;;13.65;4.80;;;;;;;0.32;89.73;98295.16;5057622;28;20036;-75
2021/01/06 07:42:55;;;;;;;7.90;4.63;;;;;;;0.33;89.87;98298.66;5068179;28;20025;-76
2021/01/06 07:45:35;;;;;;;8.32;4.60;;;;;;;0.34;90.01;98309.16;5076225;28;20020;-76
2021/01/06 07:48:27;;;;;;;9.30;6.07;;;;;;;0.18;89.81;98288.53;5070237;28;20031;-74
2021/01/06 07:50:55;;;;;;;7.90;5.63;;;;;;;0.32;89.60;98318.28;5078111;28;20474;-73
2021/01/06 07:53:22;;;;;;;7.30;4.35;;;;;;;0.31;89.75;98296.13;5081573;28;20474;-74
2021/01/06 07:56:01;;;;;;;8.02;4.65;;;;;;;0.32;89.76;98310.31;5069341;28;20028;-75
2021/01/06 07:58:33;;;;;;;6.97;3.90;;;;;;;0.30;89.88;98323.75;5060656;28;20024;-75
2021/01/06 08:01:07;;;;;;;6.53;3.90;;;;;;;0.27;89.88;98318.72;5078682;28;20043;-75
2021/01/06 08:03:56;;;;;;;6.88;4.13;;;;;;;0.32;90.05;98323.59;5068426;28;20031;-72
2021/01/06 08:06:48;;;;;;;10.00;4.15;;;;;;;0.27;90.03;98307.25;5070858;28;20024;-73
2021/01/06 08:09:37;;;;;;;7.63;3.42;;;;;;;0.40;89.92;98324.50;5075742;28;20482;-77
2021/01/06 08:12:24;;;;;;;5.53;3.30;;;;;;;0.37;90.01;98324.81;5076551;28;20078;-74
2021/01/06 08:15:09;;;;;;;8.70;3.63;;;;;;;0.40;89.95;98332.50;5065836;28;20025;-73
2021/01/06 08:17:54;;;;;;;7.18;3.40;;;;;;;0.34;89.72;98318.94;5079852;28;20032;-73
2021/01/06 08:20:29;;;;;;;8.43;3.88;;;;;;;0.33;89.94;98319.94;5075273;28;20099;-76
2021/01/06 08:23:19;;;;;;;7.18;4.07;;;;;;;0.38;90.16;98323.00;5075413;28;20029;-74
2021/01/06 08:26:24;;;;;;;6.55;3.85;;;;;;;0.43;89.92;98326.88;5058541;28;20047;-74
2021/01/06 08:28:49;;;;;;;7.00;3.80;;;;;;;0.36;90.41;98330.28;5066587;28;20028;-74
2021/01/06 08:31:18;;;;;;;8.35;3.80;;;;;;;0.36;89.79;98335.59;5075163;28;20094;-74
2021/01/06 08:33:53;;;;;;;5.88;3.30;;;;;;;0.33;90.13;98331.41;5074696;28;20029;-74
2021/01/06 08:36:29;;;;;;;7.22;3.88;;;;;;;0.38;90.10;98330.97;5074456;28;20028;-74
2021/01/06 08:39:25;;;;;;;7.35;3.67;;;;;;;0.52;89.85;98327.78;5068849;28;20028;-75
2021/01/06 08:41:51;;;;;;;7.50;4.13;;;;;;;0.32;89.90;98297.81;5066895;28;20090;-73
2021/01/06 08:44:38;;;;;;;6.40;3.55;;;;;;;0.53;89.50;98332.13;5071261;28;20139;-75
2021/01/06 08:47:08;;;;;;;7.82;4.10;;;;;;;0.52;89.56;98330.44;5074800;28;20063;-75
2021/01/06 08:49:44;;;;;;;5.93;3.53;;;;;;;0.50;89.54;98327.13;5085880;28;20035;-74
2021/01/06 08:52:15;;;;;;;7.07;3.85;;;;;;;0.60;89.48;98330.53;5080785;28;20390;-73
2021/01/06 08:54:42;;;;;;;6.30;3.60;;;;;;;0.63;89.18;98326.75;5065747;28;20032;-74
2021/01/06 08:57:22;;;;;;;7.93;4.20;;;;;;;0.67;89.36;98327.25;5074058;28;20043;-73
2021/01/06 08:59:47;;;;;;;6.20;3.70;;;;;;;0.67;89.24;98328.09;5074490;28;20036;-73
2021/01/06 09:02:35;;;;;;;7.35;3.97;;;;;;;0.77;88.75;98333.34;5074692;28;20069;-73
2021/01/06 09:05:00;;;;;;;9.90;4.03;;;;;;;0.73;88.91;98331.97;5072423;28;20044;-74
2021/01/06 09:07:30;;;;;;;8.02;3.92;;;;;;;0.72;88.90;98330.31;5061647;28;20471;-73
2021/01/06 09:10:27;;;;;;;9.20;4.60;;;;;;;0.83;89.03;98330.91;5065851;28;20028;-74
2021/01/06 09:12:56;;;;;;;7.68;3.95;;;;;;;0.96;88.80;98332.34;5075958;28;20414;-75
2021/01/06 09:15:31;;;;;;;7.07;3.75;;;;;;;0.90;88.51;98327.63;5064344;28;20032;-76
2021/01/06 09:18:06;;;;;;;7.05;4.10;;;;;;;0.83;88.86;98322.91;5079395;28;20105;-76
2021/01/06 09:20:50;;;;;;;6.75;3.78;;;;;;;1.02;88.23;98337.91;5076349;28;20048;-76
2021/01/06 09:23:18;;;;;;;9.10;4.38;;;;;;;1.01;88.59;98341.53;5071136;28;20025;-74
2021/01/06 09:25:44;;;;;;;7.00;3.80;;;;;;;0.91;88.21;98324.81;5073421;28;20028;-74
2021/01/06 09:28:13;;;;;;;7.35;4.15;;;;;;;1.08;87.68;98331.94;5073645;28;20028;-76
2021/01/06 09:30:39;;;;;;;;;;;;;;;1.14;87.63;98345.63;5071807;28;20153;-74
2021/01/06 09:33:15;;;;;;;5.28;3.42;;;;;;;1.02;87.92;98323.72;5075890;28;20007;-76
2021/01/06 09:35:41;;;;;;;9.88;4.10;;;;;;;1.19;87.98;98344.19;5070412;28;20383;-74
2021/01/06 09:38:18;;;;;;;8.38;4.28;;;;;;;1.26;87.77;98347.06;5072945;28;20021;-73
2021/01/06 09:40:44;;;;;;;5.95;3.40;;;;;;;1.20;87.41;98351.16;5075822;28;20047;-73
2021/01/06 09:43:47;;;;;;;5.88;3.53;;;;;;;1.24;87.71;98349.06;5069052;28;20070;-72
2021/01/06 09:46:15;;;;;;;8.27;3.90;;;;;;;1.27;87.08;98354.06;5062481;28;20079;-72
2021/01/06 09:48:44;;;;;;;7.93;4.13;;;;;;;1.36;87.41;98355.78;5073012;28;20528;-72
2021/01/06 09:51:10;;;;;;;9.48;3.97;;;;;;;1.33;87.94;98360.59;5071912;28;20024;-72
2021/01/06 09:53:37;;;;;;;8.48;3.80;;;;;;;1.24;87.83;98346.38;5072463;28;20028;-72
2021/01/06 09:56:03;;;;;;;6.82;4.00;;;;;;;1.15;87.91;98352.63;5068688;28;20040;-74
2021/01/06 09:58:36;;;;;;;7.18;3.72;;;;;;;1.17;87.98;98342.66;5067510;28;20097;-74
2021/01/06 10:01:30;;;;;;;6.55;3.63;;;;;;;1.28;88.44;98353.06;5071848;28;20055;-72
2021/01/06 10:04:10;;;;;;;6.63;3.42;;;;;;;1.23;88.23;98350.03;5066320;28;20107;-73
2021/01/06 10:06:39;;;;;;;6.32;3.65;;;;;;;1.24;88.32;98363.19;5066364;28;20056;-72
2021/01/06 10:09:18;;;;;;;4.38;2.33;;;;;;;1.22;88.45;98351.03;5072127;28;20474;-73
2021/01/06 10:12:13;;;;;;;8.33;3.57;;;;;;;1.33;88.14;98342.78;5071032;28;20145;-75
2021/01/06 10:15:06;;;;;;;9.40;4.15;;;;;;;1.32;88.53;98349.09;5068840;28;20101;-73
2021/01/06 10:17:47;;;;;;;7.68;3.97;;;;;;;1.30;88.35;98335.94;5081058;28;20032;-73
2021/01/06 10:20:30;;;;;;;8.63;4.45;;;;;;;1.38;87.95;98343.13;5066762;28;20033;-72
2021/01/06 10:23:25;;;;;;;8.77;3.95;;;;;;;1.54;87.69;98339.75;5076715;28;20024;-73
2021/01/06 10:25:57;;;;;;;7.65;4.47;;;;;;;1.45;87.61;98341.53;5072692;28;20044;-71
2021/01/06 10:28:22;;;;;;;8.45;4.80;;;;;;;1.51;87.27;98343.56;5072718;28;20028;-74
2021/01/06 10:31:03;;;;;;;7.45;3.55;;;;;;;1.45;87.69;98338.88;5062532;28;20090;-74
2021/01/06 10:33:31;;;;;;;10.90;4.63;;;;;;;1.45;87.69;98317.53;5070945;28;20060;-71
2021/01/06 10:36:34;;;;;;;6.57;3.97;;;;;;;1.56;87.50;98334.25;5072128;28;20490;-72
2021/01/06 10:39:00;;;;;;;6.55;3.92;;;;;;;1.60;87.36;98330.28;5070013;28;20024;-72
2021/01/06 10:41:31;;;;;;;8.25;4.55;;;;;;;1.58;87.62;98340.28;5071473;28;20478;-72
2021/01/06 10:44:21;;;;;;;9.70;4.78;;;;;;;1.53;87.86;98330.91;5075088;28;20052;-71
2021/01/06 10:46:51;;;;;;;5.78;3.63;;;;;;;1.59;87.67;98334.78;5073296;28;20028;-71
2021/01/06 10:49:19;;;;;;;8.25;4.40;;;;;;;1.58;87.60;98330.44;5072376;28;20482;-76
2021/01/06 10:52:01;;;;;;;6.82;4.50;;;;;;;1.43;87.94;98340.00;5066906;28;20025;-75
2021/01/06 10:54:40;;;;;;;9.05;4.32;;;;;;;1.43;88.10;98340.84;5072331;28;20086;-76
2021/01/06 10:57:15;;;;;;;8.98;5.03;;;;;;;1.35;88.17;98332.78;5071203;28;20021;-76
2021/01/06 11:00:03;;;;;;;8.63;4.63;;;;;;;1.20;88.10;98303.22;5070647;28;20224;-76
2021/01/06 11:02:46;;;;;;;10.25;4.55;;;;;;;1.35;87.91;98314.13;5083359;28;20025;-75
2021/01/06 11:05:27;;;;;;;8.80;4.68;;;;;;;1.24;87.69;98312.56;5066562;28;20099;-75
2021/01/06 11:08:28;;;;;;;9.77;5.10;;;;;;;1.22;88.33;98327.88;5070336;28;20029;-75
2021/01/06 11:11:15;;;;;;;9.35;4.82;;;;;;;1.07;88.57;98303.66;5069257;28;20457;-75
2021/01/06 11:14:08;;;;;;;10.68;4.80;;;;;;;1.18;88.44;98315.00;5062696;28;20486;-75
2021/01/06 11:16:47;;;;;;;7.75;4.43;;;;;;;1.26;88.17;98321.25;5057545;28;20441;-75
2021/01/06 11:19:40;;;;;;;8.43;5.03;;;;;;;1.25;88.43;98324.91;5066862;28;20069;-75
2021/01/06 11:22:34;;;;;;;9.23;4.97;;;;;;;1.29;88.48;98317.44;5058767;28;20031;-74
2021/01/06 11:25:38;;;;;;;8.73;4.72;;;;;;;1.25;88.51;98329.41;5062885;28;20025;-75
2021/01/06 11:28:03;;;;;;;9.60;5.32;;;;;;;1.35;88.55;98330.13;5069390;28;20685;-75
2021/01/06 11:30:35;;;;;;;10.32;5.28;;;;;;;1.28;88.65;98307.75;5067510;28;20055;-75
2021/01/06 11:33:18;;;;;;;8.38;5.15;;;;;;;1.33;88.48;98323.28;5070532;28;20513;-75
2021/01/06 11:36:16;;;;;;;9.32;5.53;;;;;;;1.35;88.32;98322.13;5060707;28;20035;-75
2021/01/06 11:38:41;;;;;;;9.30;5.30;;;;;;;1.33;88.75;98312.63;5067078;28;20032;-76
2021/01/06 11:41:18;;;;;;;10.20;5.55;;;;;;;1.29;89.34;98317.44;5076048;28;20238;-75
2021/01/06 11:43:50;;;;;;;9.43;5.60;;;;;;;1.38;88.40;98315.66;5084167;28;20077;-75
2021/01/06 11:46:24;;;;;;;10.90;5.95;;;;;;;1.39;88.28;98306.66;5083795;28;20028;-76
2021/01/06 11:49:07;;;;;;;12.57;6.97;;;;;;;1.25;88.31;98290.25;5079132;28;20509;-75
2021/01/06 11:51:33;;;;;;;12.38;6.97;;;;;;;1.32;89.13;98311.78;5082168;28;20024;-76
2021/01/06 11:54:24;;;;;;;11.18;6.40;;;;;;;1.44;88.50;98313.22;5077190;28;21999;-75
2021/01/06 11:56:53;;;;;;;9.85;5.93;;;;;;;1.36;88.25;98286.47;5055715;28;20024;-75
2021/01/06 11:59:43;;;;;;;9.85;5.38;;;;;;;1.37;88.26;98298.84;5056016;28;20036;-75
2021/01/06 12:02:20;;;;;;;11.68;5.70;;;;;;;1.50;87.82;98309.06;5092321;28;20031;-74
2021/01/06 12:05:14;;;;;;;9.13;5.40;;;;;;;1.46;87.54;98305.03;5081893;28;20021;-74
2021/01/06 12:08:04;;;;;;;8.35;4.95;;;;;;;1.44;87.63;98297.22;5074460;28;20695;-75
2021/01/06 12:10:42;;;;;;;7.82;4.60;;;;;;;1.44;87.84;98299.88;5071897;28;20130;-75
2021/01/06 12:13:39;;;;;;;9.05;5.10;;;;;;;1.38;87.69;98295.16;5073862;28;20052;-75
2021/01/06 12:16:13;;;;;;;8.52;4.82;;;;;;;1.34;88.32;98290.31;5055049;28;20074;-75
2021/01/06 12:19:07;;;;;;;8.32;4.22;;;;;;;1.43;87.88;98294.69;5073776;28;20129;-76
2021/01/06 12:21:35;;;;;;;10.48;4.97;;;;;;;1.46;87.79;98297.88;5072535;28;20436;-75